createdAt,value
2023-11-04T00:00:19.087Z,21.05
2023-11-04T00:02:45.918Z,12.85
2023-11-04T00:05:12.803Z,15.02
2023-11-04T00:07:39.833Z,13.13
2023-11-04T00:10:07.259Z,13.15
2023-11-04T00:12:34.216Z,19.63
2023-11-04T00:15:01.273Z,9.45
2023-11-04T00:17:28.482Z,17.38
2023-11-04T00:19:55.276Z,21.95
2023-11-04T00:22:22.008Z,13.90
2023-11-04T00:24:50.899Z,13.88
2023-11-04T00:27:17.823Z,16.83
2023-11-04T00:29:44.908Z,15.05
2023-11-04T00:32:11.580Z,17.20
2023-11-04T00:34:38.341Z,13.38
2023-11-04T00:37:05.112Z,11.73
2023-11-04T00:39:31.923Z,16.70
2023-11-04T00:41:58.638Z,13.32
2023-11-04T00:44:25.639Z,10.98
2023-11-04T00:46:52.344Z,18.58
2023-11-04T00:49:19.130Z,11.02
2023-11-04T00:51:46.003Z,17.00
2023-11-04T00:54:12.734Z,16.23
2023-11-04T00:56:39.513Z,11.52
2023-11-04T00:59:06.196Z,12.55
2023-11-04T01:01:32.927Z,18.77
2023-11-04T01:03:59.645Z,9.38
2023-11-04T01:06:26.400Z,10.52
2023-11-04T01:08:53.086Z,13.55
2023-11-04T01:11:19.806Z,9.18
2023-11-04T01:13:47.770Z,15.02
2023-11-04T01:16:14.726Z,19.02
2023-11-04T01:18:41.467Z,11.75
2023-11-04T01:21:08.192Z,11.02
2023-11-04T01:23:37.198Z,13.85
2023-11-04T01:26:04.238Z,12.60
2023-11-04T01:28:31.555Z,13.18
2023-11-04T01:30:58.247Z,15.35
2023-11-04T01:33:27.433Z,6.65
2023-11-04T01:35:54.424Z,9.55
2023-11-04T01:38:21.167Z,16.38
2023-11-04T01:40:55.865Z,15.48
2023-11-04T01:43:30.608Z,8.07
2023-11-04T01:46:10.674Z,18.20
2023-11-04T01:48:38.062Z,14.70
2023-11-04T01:51:06.165Z,13.07
2023-11-04T01:53:34.617Z,18.65
2023-11-04T01:56:02.276Z,16.95
2023-11-04T01:58:32.689Z,11.48
2023-11-04T02:01:01.589Z,17.33
2023-11-04T02:03:31.862Z,29.20
2023-11-04T02:05:58.642Z,15.45
2023-11-04T02:08:25.337Z,15.15
2023-11-04T02:10:52.070Z,11.90
2023-11-04T02:13:18.857Z,15.38
2023-11-04T02:15:45.532Z,15.90
2023-11-04T02:18:12.187Z,15.50
2023-11-04T02:20:40.268Z,11.18
2023-11-04T02:23:06.930Z,21.38
2023-11-04T02:25:35.870Z,17.38
2023-11-04T02:28:02.634Z,15.00
2023-11-04T02:30:29.796Z,19.65
2023-11-04T02:32:56.635Z,16.58
2023-11-04T02:35:23.300Z,16.20
2023-11-04T02:37:51.577Z,13.73
2023-11-04T02:40:18.589Z,16.90
2023-11-04T02:42:45.440Z,15.43
2023-11-04T02:45:12.402Z,16.17
2023-11-04T02:47:39.192Z,12.48
2023-11-04T02:50:06.492Z,13.38
2023-11-04T02:52:33.160Z,10.98
2023-11-04T02:54:59.844Z,13.02
2023-11-04T02:57:26.803Z,18.80
2023-11-04T02:59:53.448Z,11.35
2023-11-04T03:02:20.600Z,18.30
2023-11-04T03:04:47.318Z,13.50
2023-11-04T03:07:14.051Z,12.20
2023-11-04T03:09:40.894Z,15.07
2023-11-04T03:12:07.856Z,11.23
2023-11-04T03:14:34.523Z,16.10
2023-11-04T03:17:01.205Z,12.95
2023-11-04T03:19:27.941Z,15.13
2023-11-04T03:21:57.942Z,17.48
2023-11-04T03:24:24.917Z,15.38
2023-11-04T03:26:52.886Z,16.08
2023-11-04T03:29:19.555Z,11.88
2023-11-04T03:31:46.309Z,13.90
2023-11-04T03:34:13.559Z,14.95
2023-11-04T03:36:40.269Z,8.13
2023-11-04T03:39:06.928Z,13.38
2023-11-04T03:41:33.685Z,15.00
2023-11-04T03:44:00.365Z,16.48
2023-11-04T03:46:27.265Z,16.20
2023-11-04T03:48:54.042Z,16.50
2023-11-04T03:51:20.802Z,12.27
2023-11-04T03:53:55.709Z,21.95
2023-11-04T03:56:23.304Z,13.60
2023-11-04T03:58:50.016Z,10.13
2023-11-04T04:01:16.699Z,17.13
2023-11-04T04:03:43.421Z,23.15
2023-11-04T04:06:10.317Z,13.50
2023-11-04T04:08:37.005Z,17.67
2023-11-04T04:11:04.067Z,13.82
2023-11-04T04:13:31.105Z,13.38
2023-11-04T04:15:57.929Z,12.23
2023-11-04T04:18:24.883Z,16.33
2023-11-04T04:20:51.680Z,8.00
2023-11-04T04:23:18.423Z,14.23
2023-11-04T04:25:45.365Z,14.52
2023-11-04T04:28:12.138Z,11.27
2023-11-04T04:30:38.797Z,12.02
2023-11-04T04:33:06.743Z,11.32
2023-11-04T04:35:33.561Z,12.60
2023-11-04T04:38:00.185Z,10.10
2023-11-04T04:40:28.759Z,15.10
2023-11-04T04:42:55.609Z,12.15
2023-11-04T04:45:22.500Z,16.73
2023-11-04T04:47:49.288Z,7.90
2023-11-04T04:50:16.094Z,15.65
2023-11-04T04:52:42.754Z,12.10
2023-11-04T04:55:09.597Z,16.83
2023-11-04T04:57:37.016Z,11.75
2023-11-04T05:00:07.369Z,12.10
2023-11-04T05:02:35.104Z,12.70
2023-11-04T05:05:02.026Z,16.42
2023-11-04T05:07:29.664Z,14.10
2023-11-04T05:09:57.079Z,8.65
2023-11-04T05:12:23.845Z,14.57
2023-11-04T05:14:50.502Z,16.23
2023-11-04T05:17:18.418Z,16.40
2023-11-04T05:19:45.491Z,11.20
2023-11-04T05:22:12.130Z,14.02
2023-11-04T05:24:38.907Z,10.55
2023-11-04T05:27:05.684Z,14.95
2023-11-04T05:29:32.377Z,19.80
2023-11-04T05:31:59.053Z,21.98
2023-11-04T05:34:25.760Z,14.50
2023-11-04T05:36:54.022Z,13.13
2023-11-04T05:39:20.840Z,15.00
2023-11-04T05:41:47.558Z,14.43
2023-11-04T05:44:14.292Z,14.13
2023-11-04T05:46:40.948Z,10.02
2023-11-04T05:49:08.061Z,14.50
2023-11-04T05:51:34.769Z,13.32
2023-11-04T05:54:01.425Z,13.55
2023-11-04T05:56:29.188Z,10.98
2023-11-04T05:58:55.879Z,13.07
2023-11-04T06:01:25.888Z,18.15
2023-11-04T06:03:52.894Z,9.60
2023-11-04T06:06:21.473Z,14.75
2023-11-04T06:08:48.590Z,10.77
2023-11-04T06:11:15.292Z,20.20
2023-11-04T06:13:44.260Z,12.73
2023-11-04T06:16:10.926Z,13.60
2023-11-04T06:18:42.072Z,15.77
2023-11-04T06:21:15.830Z,16.55
2023-11-04T06:23:42.468Z,25.77
2023-11-04T06:26:09.152Z,19.48
2023-11-04T06:28:35.788Z,15.63
2023-11-04T06:31:10.419Z,24.63
2023-11-04T06:33:37.161Z,13.15
2023-11-04T06:36:04.256Z,9.55
2023-11-04T06:38:31.129Z,7.13
2023-11-04T06:40:57.830Z,14.40
2023-11-04T06:43:24.536Z,10.95
2023-11-04T06:45:51.304Z,15.23
2023-11-04T06:48:18.046Z,9.40
2023-11-04T06:50:44.970Z,20.33
2023-11-04T06:53:11.862Z,11.13
2023-11-04T06:55:38.546Z,18.45
2023-11-04T06:58:05.398Z,12.30
2023-11-04T07:00:32.175Z,12.70
2023-11-04T07:02:58.965Z,10.20
2023-11-04T07:05:25.846Z,16.33
2023-11-04T07:07:53.371Z,11.45
2023-11-04T07:10:20.020Z,12.98
2023-11-04T07:12:46.745Z,14.00
2023-11-04T07:15:13.539Z,9.63
2023-11-04T07:17:40.213Z,14.95
2023-11-04T07:20:11.928Z,10.32
2023-11-04T07:22:38.731Z,6.90
2023-11-04T07:25:05.650Z,10.23
2023-11-04T07:27:32.578Z,12.25
2023-11-04T07:29:59.231Z,13.70
2023-11-04T07:32:25.886Z,7.35
2023-11-04T07:34:52.627Z,13.05
2023-11-04T07:37:19.511Z,8.52
2023-11-04T07:39:46.425Z,10.55
2023-11-04T07:42:13.766Z,16.17
2023-11-04T07:44:40.837Z,9.40
2023-11-04T07:47:07.620Z,7.00
2023-11-04T07:49:35.725Z,13.48
2023-11-04T07:52:02.486Z,8.55
2023-11-04T07:54:29.196Z,6.15
2023-11-04T07:56:55.866Z,9.90
2023-11-04T07:59:22.971Z,5.85
2023-11-04T08:01:49.588Z,7.90
2023-11-04T08:04:16.370Z,9.43
2023-11-04T08:06:43.394Z,8.90
2023-11-04T08:09:10.122Z,10.95
2023-11-04T08:11:36.824Z,7.70
2023-11-04T08:14:03.520Z,7.78
2023-11-04T08:16:30.590Z,11.43
2023-11-04T08:18:57.264Z,6.55
2023-11-04T08:21:24.986Z,14.98
2023-11-04T08:23:51.680Z,8.27
2023-11-04T08:26:18.315Z,10.18
2023-11-04T08:28:45.289Z,5.70
2023-11-04T08:31:11.997Z,7.90
2023-11-04T08:33:38.913Z,8.57
2023-11-04T08:36:08.416Z,8.55
2023-11-04T08:38:35.132Z,6.78
2023-11-04T08:41:02.062Z,6.13
2023-11-04T08:43:28.761Z,4.22
2023-11-04T08:45:55.737Z,2.85
2023-11-04T08:48:22.796Z,6.60
2023-11-04T08:50:49.517Z,8.05
2023-11-04T08:53:16.255Z,3.05
2023-11-04T08:55:42.951Z,11.95
2023-11-04T08:58:10.285Z,3.85
2023-11-04T09:00:37.056Z,7.97
2023-11-04T09:03:03.813Z,4.35
2023-11-04T09:05:33.813Z,9.75
2023-11-04T09:08:02.018Z,6.15
2023-11-04T09:10:28.932Z,6.70
2023-11-04T09:12:56.363Z,8.05
2023-11-04T09:15:23.162Z,7.88
2023-11-04T09:17:49.950Z,4.90
2023-11-04T09:20:16.745Z,7.00
2023-11-04T09:22:43.498Z,3.58
2023-11-04T09:25:11.013Z,3.20
2023-11-04T09:27:37.926Z,5.63
2023-11-04T09:30:05.240Z,5.95
2023-11-04T09:32:31.965Z,8.45
2023-11-04T09:34:58.755Z,2.40
2023-11-04T09:37:25.918Z,2.50
2023-11-04T09:39:52.674Z,6.00
2023-11-04T09:42:19.458Z,2.58
2023-11-04T09:44:46.317Z,3.03
2023-11-04T09:47:12.981Z,2.08
2023-11-04T09:49:39.772Z,4.00
2023-11-04T09:52:10.583Z,3.85
2023-11-04T09:54:38.270Z,1.90
2023-11-04T09:57:05.402Z,8.00
2023-11-04T09:59:33.694Z,4.00
2023-11-04T10:02:00.413Z,4.03
2023-11-04T10:04:28.094Z,2.78
2023-11-04T10:06:54.918Z,2.38
2023-11-04T10:09:22.005Z,2.90
2023-11-04T10:11:48.663Z,1.35
2023-11-04T10:14:15.514Z,3.28
2023-11-04T10:16:42.146Z,3.13
2023-11-04T10:19:09.925Z,4.03
2023-11-04T10:21:37.033Z,2.17
2023-11-04T10:24:07.042Z,2.40
2023-11-04T10:26:34.427Z,2.40
2023-11-04T10:29:01.321Z,2.17
2023-11-04T10:31:29.814Z,2.33
2023-11-04T10:34:01.264Z,4.85
2023-11-04T10:36:30.130Z,6.43
2023-11-04T10:39:02.307Z,8.27
2023-11-04T10:46:54.383Z,2.92
2023-11-04T10:49:25.899Z,2.10
2023-11-04T10:52:15.538Z,6.45
2023-11-04T10:54:50.230Z,2.55
2023-11-04T10:57:30.821Z,6.95
2023-11-04T11:00:12.869Z,2.45
2023-11-04T11:02:41.261Z,2.65
2023-11-04T11:05:12.345Z,2.63
2023-11-04T11:07:45.857Z,2.33
2023-11-04T11:10:20.512Z,3.17
2023-11-04T11:13:08.557Z,5.15
2023-11-04T11:15:36.485Z,3.42
2023-11-04T11:18:03.429Z,22.15
2023-11-04T11:20:32.386Z,7.20
2023-11-04T11:22:59.800Z,6.30
2023-11-04T11:25:40.082Z,4.90
2023-11-04T11:28:21.744Z,2.83
2023-11-04T11:30:55.753Z,4.22
2023-11-04T11:36:00.743Z,6.38
2023-11-04T11:38:31.950Z,1.65
2023-11-04T11:41:16.573Z,4.80
2023-11-04T11:43:44.469Z,3.72
2023-11-04T11:46:11.394Z,3.40
2023-11-04T11:48:43.288Z,0.93
2023-11-04T11:51:12.694Z,1.48
2023-11-04T11:53:43.556Z,1.20
2023-11-04T11:56:10.446Z,6.70
2023-11-04T11:58:38.484Z,1.85
2023-11-04T12:01:06.738Z,2.67
2023-11-04T12:03:35.492Z,2.53
2023-11-04T12:06:03.492Z,3.55
2023-11-04T12:08:30.229Z,2.70
2023-11-04T12:10:56.867Z,2.80
2023-11-04T12:13:23.770Z,3.38
2023-11-04T12:15:51.048Z,1.80
2023-11-04T12:18:18.873Z,1.50
2023-11-04T12:20:46.630Z,1.13
2023-11-04T12:23:15.549Z,2.05
2023-11-04T12:25:43.475Z,1.00
2023-11-04T12:28:11.126Z,5.85
2023-11-04T12:30:38.207Z,1.20
2023-11-04T12:33:05.851Z,3.13
2023-11-04T12:35:36.589Z,1.25
2023-11-04T12:38:03.613Z,2.90
2023-11-04T12:40:31.399Z,6.78
2023-11-04T12:43:03.376Z,5.60
2023-11-04T12:45:31.217Z,1.77
2023-11-04T12:47:58.122Z,1.42
2023-11-04T12:50:24.910Z,1.63
2023-11-04T12:52:53.663Z,7.82
2023-11-04T12:55:20.998Z,1.20
2023-11-04T12:57:47.963Z,1.90
2023-11-04T13:00:15.730Z,1.33
2023-11-04T13:02:42.861Z,1.63
2023-11-04T13:05:10.194Z,1.75
2023-11-04T13:07:38.668Z,3.38
2023-11-04T13:10:09.547Z,2.95
2023-11-04T13:12:36.407Z,1.88
2023-11-04T13:15:03.231Z,2.20
2023-11-04T13:17:29.886Z,2.67
2023-11-04T13:19:56.589Z,1.63
2023-11-04T13:22:23.317Z,1.85
2023-11-04T13:24:50.034Z,2.53
2023-11-04T13:27:16.735Z,2.22
2023-11-04T13:29:43.785Z,0.82
2023-11-04T13:32:10.464Z,3.15
2023-11-04T13:34:37.578Z,2.28
2023-11-04T13:37:04.877Z,1.42
2023-11-04T13:39:31.648Z,2.15
2023-11-04T13:41:58.384Z,1.48
2023-11-04T13:44:25.053Z,1.75
2023-11-04T13:46:51.709Z,1.80
2023-11-04T13:49:18.543Z,4.57
2023-11-04T13:51:45.364Z,1.88
2023-11-04T13:54:13.464Z,1.73
2023-11-04T13:56:40.168Z,1.50
2023-11-04T13:59:08.248Z,2.60
2023-11-04T14:01:35.918Z,3.10
2023-11-04T14:04:03.407Z,4.30
2023-11-04T14:06:30.208Z,0.82
2023-11-04T14:08:56.946Z,1.20
2023-11-04T14:11:23.649Z,1.85
2023-11-04T14:13:50.292Z,2.55
2023-11-04T14:16:17.133Z,5.47
2023-11-04T14:18:43.913Z,2.90
2023-11-04T14:21:11.166Z,5.70
2023-11-04T14:23:38.171Z,4.63
2023-11-04T14:26:05.616Z,2.15
2023-11-04T14:28:32.301Z,2.22
2023-11-04T14:30:59.148Z,0.85
2023-11-04T14:33:26.190Z,0.82
2023-11-04T14:35:53.047Z,1.05
2023-11-04T14:38:19.930Z,1.13
2023-11-04T14:40:46.700Z,1.73
2023-11-04T14:43:13.968Z,1.40
2023-11-04T14:45:40.950Z,1.25
2023-11-04T14:48:08.134Z,0.65
2023-11-04T14:50:36.738Z,4.22
2023-11-04T14:53:03.652Z,6.55
2023-11-04T14:55:30.276Z,0.80
2023-11-04T14:57:57.154Z,0.80
2023-11-04T15:00:23.870Z,3.53
2023-11-04T15:02:52.459Z,2.05
2023-11-04T15:05:19.341Z,2.60
2023-11-04T15:07:46.557Z,5.68
2023-11-04T15:10:13.335Z,0.85
2023-11-04T15:12:40.163Z,0.77
2023-11-04T15:15:07.661Z,2.97
2023-11-04T15:17:34.855Z,1.50
2023-11-04T15:20:02.629Z,1.80
2023-11-04T15:22:29.369Z,4.90
2023-11-04T15:24:56.285Z,6.68
2023-11-04T15:27:22.935Z,2.40
2023-11-04T15:29:49.692Z,6.20
2023-11-04T15:32:16.372Z,1.60
2023-11-04T15:34:43.153Z,1.98
2023-11-04T15:37:11.378Z,3.47
2023-11-04T15:39:38.658Z,7.18
2023-11-04T15:42:05.594Z,2.10
2023-11-04T15:44:33.171Z,3.90
2023-11-04T15:47:00.222Z,11.18
2023-11-04T15:49:27.443Z,3.13
2023-11-04T15:51:54.813Z,6.95
2023-11-04T15:54:21.824Z,3.35
2023-11-04T15:56:48.545Z,1.50
2023-11-04T15:59:15.315Z,3.35
2023-11-04T16:01:42.092Z,6.38
2023-11-04T16:04:08.876Z,10.05
2023-11-04T16:06:35.946Z,3.65
2023-11-04T16:09:03.726Z,3.35
2023-11-04T16:11:30.930Z,6.25
2023-11-04T16:13:57.682Z,7.65
2023-11-04T16:16:24.917Z,5.35
2023-11-04T16:18:51.942Z,3.13
2023-11-04T16:21:19.045Z,6.03
2023-11-04T16:23:45.769Z,9.55
2023-11-04T16:26:14.090Z,11.20
2023-11-04T16:28:44.138Z,4.05
2023-11-04T16:31:20.967Z,8.00
2023-11-04T16:33:47.995Z,6.82
2023-11-04T16:36:14.664Z,5.32
2023-11-04T16:38:41.291Z,7.15
2023-11-04T16:41:08.663Z,7.90
2023-11-04T16:43:35.692Z,5.22
2023-11-04T16:46:02.369Z,5.82
2023-11-04T16:48:29.197Z,6.18
2023-11-04T16:50:56.356Z,6.68
2023-11-04T16:53:23.054Z,7.97
2023-11-04T16:55:50.117Z,4.00
2023-11-04T16:58:16.813Z,4.82
2023-11-04T17:00:43.601Z,9.90
2023-11-04T17:03:10.552Z,6.05
2023-11-04T17:05:37.337Z,4.60
2023-11-04T17:08:04.117Z,4.60
2023-11-04T17:10:31.040Z,5.55
2023-11-04T17:12:57.692Z,6.35
2023-11-04T17:15:24.374Z,5.30
2023-11-04T17:17:51.286Z,7.38
2023-11-04T17:20:18.097Z,5.88
2023-11-04T17:22:44.760Z,6.00
2023-11-04T17:25:11.613Z,7.88
2023-11-04T17:27:38.781Z,4.95
2023-11-04T17:30:08.318Z,4.63
2023-11-04T17:32:35.269Z,6.47
2023-11-04T17:35:07.013Z,3.17
2023-11-04T17:37:33.860Z,10.20
2023-11-04T17:40:00.594Z,5.55
2023-11-04T17:42:27.273Z,3.92
2023-11-04T17:44:53.967Z,7.90
2023-11-04T17:47:20.642Z,4.35
2023-11-04T17:49:49.090Z,2.50
2023-11-04T17:52:15.787Z,5.03
2023-11-04T17:54:42.501Z,3.60
2023-11-04T17:57:09.800Z,5.85
2023-11-04T17:59:36.454Z,2.85
2023-11-04T18:02:03.539Z,8.27
2023-11-04T18:04:30.405Z,4.30
2023-11-04T18:06:57.199Z,4.20
2023-11-04T18:09:26.038Z,4.55
2023-11-04T18:11:52.820Z,3.95
2023-11-04T18:14:19.565Z,10.45
2023-11-04T18:16:46.735Z,9.98
2023-11-04T18:19:13.952Z,5.70
2023-11-04T18:21:40.809Z,11.73
2023-11-04T18:24:09.073Z,9.30
2023-11-04T18:26:43.346Z,5.65
2023-11-04T18:29:13.694Z,6.03
2023-11-04T18:31:40.895Z,11.38
2023-11-04T18:34:07.982Z,5.05
2023-11-04T18:36:34.837Z,5.63
2023-11-04T18:39:01.480Z,3.92
2023-11-04T18:41:28.217Z,4.43
2023-11-04T18:43:54.940Z,2.40
2023-11-04T18:46:21.675Z,4.90
2023-11-04T18:48:49.832Z,7.50
2023-11-04T18:51:20.402Z,4.00
2023-11-04T18:53:47.202Z,3.08
2023-11-04T18:56:16.775Z,4.38
2023-11-04T18:58:43.488Z,3.95
2023-11-04T19:01:10.255Z,3.33
2023-11-04T19:03:37.288Z,5.93
2023-11-04T19:06:04.658Z,4.50
2023-11-04T19:08:35.023Z,2.97
2023-11-04T19:11:02.717Z,2.13
2023-11-04T19:13:30.133Z,6.35
2023-11-04T19:15:56.927Z,4.28
2023-11-04T19:18:23.795Z,10.88
2023-11-04T19:20:50.529Z,3.00
2023-11-04T19:23:17.252Z,3.97
2023-11-04T19:25:44.036Z,4.50
2023-11-04T19:28:10.913Z,3.15
2023-11-04T19:30:37.707Z,5.15
2023-11-04T19:33:04.730Z,8.23
2023-11-04T19:35:31.512Z,9.68
2023-11-04T19:37:58.370Z,2.20
2023-11-04T19:40:26.183Z,5.82
2023-11-04T19:42:53.014Z,4.75
2023-11-04T19:45:23.385Z,3.38
2023-11-04T19:47:50.910Z,6.65
2023-11-04T19:50:17.988Z,7.20
2023-11-04T19:52:47.816Z,3.40
2023-11-04T19:55:15.151Z,6.70
2023-11-04T19:57:42.181Z,4.50
2023-11-04T20:00:09.322Z,2.92
2023-11-04T20:02:36.171Z,4.32
2023-11-04T20:05:04.304Z,4.80
2023-11-04T20:07:31.150Z,3.20
2023-11-04T20:09:57.887Z,6.60
2023-11-04T20:12:24.588Z,2.95
2023-11-04T20:14:51.725Z,4.80
2023-11-04T20:17:19.973Z,5.57
2023-11-04T20:19:50.188Z,6.35
2023-11-04T20:22:17.644Z,3.95
2023-11-04T20:24:49.612Z,2.75
2023-11-04T20:27:23.914Z,4.70
2023-11-04T20:29:51.367Z,7.18
2023-11-04T20:32:18.321Z,3.25
2023-11-04T20:34:45.355Z,3.88
2023-11-04T20:37:12.230Z,2.47
2023-11-04T20:39:39.071Z,6.78
2023-11-04T20:42:06.268Z,5.63
2023-11-04T20:44:32.904Z,2.72
2023-11-04T20:46:59.593Z,5.43
2023-11-04T20:49:26.345Z,4.47
2023-11-04T20:51:53.805Z,5.07
2023-11-04T20:54:21.618Z,3.35
2023-11-04T20:56:50.235Z,3.80
2023-11-04T20:59:17.265Z,3.80
2023-11-04T21:01:44.829Z,4.10
2023-11-04T21:04:12.853Z,5.68
2023-11-04T21:06:40.213Z,4.18
2023-11-04T21:09:09.147Z,4.28
2023-11-04T21:11:36.162Z,8.23
2023-11-04T21:14:06.009Z,7.53
2023-11-04T21:16:32.763Z,4.20
2023-11-04T21:18:59.609Z,3.97
2023-11-04T21:21:27.010Z,2.53
2023-11-04T21:23:54.113Z,3.20
2023-11-04T21:26:22.177Z,3.15
2023-11-04T21:28:51.037Z,5.32
2023-11-04T21:31:18.868Z,4.13
2023-11-04T21:33:45.601Z,7.05
2023-11-04T21:36:12.706Z,3.50
2023-11-04T21:38:39.368Z,7.30
2023-11-04T21:41:06.076Z,2.95
2023-11-04T21:43:32.793Z,3.65
2023-11-04T21:45:59.516Z,3.80
2023-11-04T21:48:26.924Z,4.32
2023-11-04T21:50:53.749Z,5.80
2023-11-04T21:53:20.451Z,2.50
2023-11-04T21:55:47.132Z,5.22
2023-11-04T21:58:13.893Z,3.35
2023-11-04T22:00:40.655Z,3.38
2023-11-04T22:03:07.826Z,2.38
2023-11-04T22:05:34.626Z,2.90
2023-11-04T22:08:01.354Z,3.85
2023-11-04T22:10:28.061Z,8.18
2023-11-04T22:12:54.804Z,2.58
2023-11-04T22:15:21.446Z,4.20
2023-11-04T22:17:48.371Z,2.97
2023-11-04T22:20:15.353Z,3.65
2023-11-04T22:22:42.183Z,4.03
2023-11-04T22:25:09.296Z,3.30
2023-11-04T22:27:36.197Z,5.32
2023-11-04T22:30:03.171Z,3.10
2023-11-04T22:32:30.124Z,3.80
2023-11-04T22:34:56.753Z,6.38
2023-11-04T22:37:23.450Z,7.18
2023-11-04T22:39:50.231Z,4.00
2023-11-04T22:42:16.862Z,4.03
2023-11-04T22:44:43.501Z,3.30
2023-11-04T22:47:10.238Z,3.80
2023-11-04T22:49:36.922Z,2.58
2023-11-04T22:52:04.992Z,5.45
2023-11-04T22:54:31.727Z,3.97
2023-11-04T22:56:58.408Z,6.80
2023-11-04T22:59:25.059Z,4.07
2023-11-04T23:01:51.877Z,3.45
2023-11-04T23:04:19.203Z,5.22
2023-11-04T23:06:47.616Z,4.20
2023-11-04T23:09:14.424Z,5.05
2023-11-04T23:11:41.064Z,3.83
2023-11-04T23:14:07.856Z,4.38
2023-11-04T23:16:34.641Z,3.95
2023-11-04T23:19:03.192Z,3.05
2023-11-04T23:21:30.741Z,11.35
2023-11-04T23:23:57.481Z,2.75
2023-11-04T23:26:25.259Z,3.42
2023-11-04T23:28:52.057Z,4.10
2023-11-04T23:31:18.848Z,3.63
2023-11-04T23:33:45.573Z,6.15
2023-11-04T23:36:12.799Z,6.40
2023-11-04T23:38:39.526Z,3.92
2023-11-04T23:41:06.359Z,4.82
2023-11-04T23:43:33.214Z,6.80
2023-11-04T23:46:01.191Z,1.88
2023-11-04T23:48:28.255Z,3.08
2023-11-04T23:50:55.002Z,5.32
2023-11-04T23:53:21.834Z,8.05
2023-11-04T23:55:48.499Z,2.92
2023-11-04T23:58:15.228Z,5.30
